createdAt,value
2017-09-11T00:02:02.511Z,60.00
2017-09-11T00:04:31.594Z,59.70
2017-09-11T00:06:59.834Z,59.70
2017-09-11T00:09:28.079Z,60.50
2017-09-11T00:11:56.350Z,60.70
2017-09-11T00:14:24.606Z,62.00
2017-09-11T00:16:53.606Z,63.10
2017-09-11T00:19:21.879Z,63.20
2017-09-11T00:21:50.118Z,62.10
2017-09-11T00:24:18.374Z,61.50
2017-09-11T00:26:47.137Z,62.90
2017-09-11T00:29:15.378Z,62.80
2017-09-11T00:31:43.614Z,64.30
2017-09-11T00:34:12.038Z,63.30
2017-09-11T00:36:40.293Z,63.70
2017-09-11T00:39:08.530Z,67.40
2017-09-11T00:41:36.794Z,64.10
2017-09-11T00:44:05.042Z,65.10
2017-09-11T00:46:33.285Z,64.90
2017-09-11T00:49:01.871Z,63.90
2017-09-11T00:51:30.097Z,64.00
2017-09-11T00:53:58.335Z,64.50
2017-09-11T00:56:26.610Z,65.70
2017-09-11T00:58:55.522Z,65.90
2017-09-11T01:01:24.534Z,65.20
2017-09-11T01:03:53.206Z,65.80
2017-09-11T01:06:22.211Z,66.50
2017-09-11T01:08:50.451Z,66.10
2017-09-11T01:11:19.008Z,68.60
2017-09-11T01:13:47.250Z,69.60
2017-09-11T01:16:15.505Z,67.20
2017-09-11T01:18:43.790Z,77.20
2017-09-11T01:21:12.794Z,70.40
2017-09-11T01:23:41.046Z,69.80
2017-09-11T01:26:09.313Z,68.00
2017-09-11T01:28:38.230Z,66.80
2017-09-11T01:31:07.234Z,67.60
2017-09-11T01:33:36.569Z,67.90
2017-09-11T01:36:04.862Z,67.80
2017-09-11T01:38:33.101Z,67.20
2017-09-11T01:41:01.378Z,66.50
2017-09-11T01:43:29.622Z,70.70
2017-09-11T01:45:57.863Z,68.40
2017-09-11T01:48:26.128Z,68.40
2017-09-11T01:50:54.362Z,67.00
2017-09-11T01:53:23.374Z,67.60
2017-09-11T01:55:52.907Z,67.50
2017-09-11T01:58:21.147Z,68.20
2017-09-11T02:00:50.301Z,67.60
2017-09-11T02:03:18.569Z,67.80
2017-09-11T02:05:47.302Z,67.70
2017-09-11T02:08:16.305Z,68.30
2017-09-11T02:10:44.578Z,68.20
2017-09-11T02:13:12.828Z,69.60
2017-09-11T02:15:41.061Z,67.90
2017-09-11T02:18:09.854Z,68.10
2017-09-11T02:20:38.103Z,67.80
2017-09-11T02:23:07.101Z,67.60
2017-09-11T02:25:35.358Z,67.70
2017-09-11T02:28:03.599Z,68.20
2017-09-11T02:30:31.847Z,69.10
2017-09-11T02:33:01.277Z,68.30
2017-09-11T02:35:29.523Z,67.70
2017-09-11T02:37:58.410Z,69.70
2017-09-11T02:40:27.175Z,69.20
2017-09-11T02:42:56.185Z,71.10
2017-09-11T02:45:24.438Z,71.10
2017-09-11T02:47:53.471Z,69.50
2017-09-11T02:50:21.712Z,69.50
2017-09-11T02:52:50.722Z,68.50
2017-09-11T02:55:18.983Z,68.40
2017-09-11T02:57:47.241Z,67.70
2017-09-11T03:00:16.247Z,70.40
2017-09-11T03:02:45.905Z,68.70
2017-09-11T03:05:14.193Z,68.60
2017-09-11T03:07:42.930Z,69.10
2017-09-11T03:10:11.960Z,69.60
2017-09-11T03:12:40.198Z,69.40
2017-09-11T03:15:08.446Z,70.90
2017-09-11T03:17:36.713Z,70.90
2017-09-11T03:20:04.961Z,69.50
2017-09-11T03:22:33.198Z,69.50
2017-09-11T03:25:02.646Z,70.30
2017-09-11T03:27:30.890Z,70.30
2017-09-11T03:29:59.130Z,69.70
2017-09-11T03:32:27.398Z,70.40
2017-09-11T03:34:55.638Z,69.60
2017-09-11T03:37:23.874Z,69.70
2017-09-11T03:39:52.142Z,70.40
2017-09-11T03:42:20.951Z,69.30
2017-09-11T03:44:49.190Z,72.40
2017-09-11T03:47:17.950Z,70.30
2017-09-11T03:49:46.248Z,70.90
2017-09-11T03:52:14.490Z,70.00
2017-09-11T03:54:42.784Z,71.20
2017-09-11T03:57:11.046Z,72.00
2017-09-11T03:59:39.301Z,70.10
2017-09-11T04:02:07.570Z,71.20
2017-09-11T04:04:36.590Z,71.30
2017-09-11T04:07:04.822Z,71.20
2017-09-11T04:09:33.978Z,69.60
2017-09-11T04:12:02.225Z,71.90
2017-09-11T04:14:30.466Z,70.90
2017-09-11T04:16:58.742Z,71.20
2017-09-11T04:19:26.991Z,71.80
2017-09-11T04:21:55.235Z,71.90
2017-09-11T04:24:23.497Z,73.00
2017-09-11T04:26:51.742Z,71.70
2017-09-11T04:29:20.000Z,73.50
2017-09-11T04:31:48.777Z,71.70
2017-09-11T04:34:17.022Z,72.00
2017-09-11T04:36:46.026Z,74.50
2017-09-11T04:39:14.301Z,74.50
2017-09-11T04:41:42.538Z,73.90
2017-09-11T04:44:10.794Z,72.20
2017-09-11T04:46:39.730Z,71.20
2017-09-11T04:49:07.970Z,72.80
2017-09-11T04:51:36.212Z,73.10
2017-09-11T04:54:04.574Z,73.40
2017-09-11T04:56:32.851Z,71.60
2017-09-11T04:59:01.838Z,74.40
2017-09-11T05:01:30.872Z,72.00
2017-09-11T05:03:59.121Z,72.00
2017-09-11T05:06:27.369Z,72.40
2017-09-11T05:08:55.626Z,72.20
2017-09-11T05:11:24.330Z,71.90
2017-09-11T05:13:52.574Z,71.40
2017-09-11T05:16:21.154Z,72.80
2017-09-11T05:18:49.394Z,71.40
2017-09-11T05:21:17.642Z,71.00
2017-09-11T05:23:45.922Z,71.00
2017-09-11T05:26:14.930Z,72.70
2017-09-11T05:28:43.938Z,71.70
2017-09-11T05:31:12.207Z,71.60
2017-09-11T05:33:40.447Z,71.00
2017-09-11T05:36:08.685Z,70.90
2017-09-11T05:38:37.650Z,71.90
2017-09-11T05:41:05.894Z,71.00
2017-09-11T05:43:34.144Z,71.00
2017-09-11T05:46:02.730Z,70.50
2017-09-11T05:48:30.953Z,70.20
2017-09-11T05:50:59.207Z,70.90
2017-09-11T05:53:27.474Z,69.60
2017-09-11T05:55:55.710Z,69.20
2017-09-11T05:58:23.956Z,68.80
2017-09-11T06:00:52.358Z,68.40
2017-09-11T06:03:20.598Z,67.60
2017-09-11T06:05:49.618Z,67.00
2017-09-11T06:08:17.874Z,67.00
2017-09-11T06:10:46.117Z,67.90
2017-09-11T06:13:14.738Z,66.50
2017-09-11T06:15:43.774Z,66.10
2017-09-11T06:18:12.014Z,66.00
2017-09-11T06:20:40.270Z,66.00
2017-09-11T06:23:09.036Z,65.70
2017-09-11T06:25:37.255Z,66.10
2017-09-11T06:28:05.494Z,66.30
2017-09-11T06:30:33.766Z,66.70
2017-09-11T06:33:02.052Z,66.50
2017-09-11T06:35:30.294Z,66.70
2017-09-11T06:37:58.730Z,67.30
2017-09-11T06:40:26.941Z,66.90
2017-09-11T06:42:55.186Z,67.10
2017-09-11T06:45:23.712Z,67.60
2017-09-11T06:47:51.969Z,67.30
2017-09-11T06:50:20.210Z,67.40
2017-09-11T06:52:48.476Z,66.50
2017-09-11T06:55:16.712Z,65.40
2017-09-11T06:57:44.949Z,65.20
2017-09-11T07:00:13.984Z,64.30
2017-09-11T07:02:42.223Z,64.20
2017-09-11T07:05:11.238Z,63.80
2017-09-11T07:07:40.042Z,63.80
2017-09-11T07:10:08.281Z,63.80
2017-09-11T07:12:49.032Z,64.00
2017-09-11T07:15:17.598Z,64.00
2017-09-11T07:17:45.841Z,63.70
2017-09-11T07:20:14.111Z,64.00
2017-09-11T07:22:42.359Z,63.90
2017-09-11T07:25:10.603Z,64.10
2017-09-11T07:27:39.721Z,63.80
2017-09-11T07:30:07.945Z,63.80
2017-09-11T07:32:36.222Z,64.00
2017-09-11T07:35:04.486Z,63.90
2017-09-11T07:37:32.762Z,63.20
2017-09-11T07:40:01.002Z,63.40
2017-09-11T07:42:29.282Z,63.00
2017-09-11T07:44:58.281Z,62.90
2017-09-11T07:47:27.310Z,62.10
2017-09-11T07:49:56.006Z,62.10
2017-09-11T07:52:24.241Z,62.10
2017-09-11T07:54:52.482Z,61.80
2017-09-11T07:57:20.751Z,60.90
2017-09-11T07:59:49.819Z,60.00
2017-09-11T08:02:18.058Z,59.00
2017-09-11T08:04:46.334Z,58.60
2017-09-11T08:07:14.579Z,58.30
2017-09-11T08:09:42.958Z,57.50
2017-09-11T08:12:11.419Z,56.90
2017-09-11T08:14:39.660Z,57.50
2017-09-11T08:17:08.466Z,57.90
2017-09-11T08:19:36.761Z,58.50
2017-09-11T08:22:04.985Z,57.00
2017-09-11T08:24:33.235Z,56.50
2017-09-11T08:27:01.494Z,56.50
2017-09-11T08:29:29.734Z,57.00
2017-09-11T08:31:57.982Z,56.90
2017-09-11T08:34:26.418Z,56.80
2017-09-11T08:36:54.662Z,56.60
2017-09-11T08:39:22.899Z,54.80
2017-09-11T08:41:51.175Z,54.50
2017-09-11T08:44:19.414Z,55.60
2017-09-11T08:46:47.766Z,54.10
2017-09-11T08:49:17.600Z,54.90
2017-09-11T08:51:45.842Z,54.90
2017-09-11T08:54:14.085Z,54.70
2017-09-11T08:56:42.854Z,54.70
2017-09-11T08:59:11.095Z,54.10
2017-09-11T09:01:39.338Z,54.20
2017-09-11T09:04:07.634Z,54.80
2017-09-11T09:06:37.758Z,54.20
2017-09-11T09:09:05.966Z,54.10
2017-09-11T09:11:34.230Z,53.60
2017-09-11T09:14:02.481Z,53.10
2017-09-11T09:16:30.717Z,53.80
2017-09-11T09:18:59.806Z,53.80
2017-09-11T09:21:28.058Z,53.80
2017-09-11T09:23:56.297Z,54.10
2017-09-11T09:26:24.603Z,53.90
2017-09-11T09:28:52.838Z,53.80
2017-09-11T09:31:21.082Z,54.70
2017-09-11T09:33:49.372Z,55.00
2017-09-11T09:36:17.602Z,54.50
2017-09-11T09:38:47.470Z,54.40
2017-09-11T09:41:16.078Z,54.30
2017-09-11T09:43:44.322Z,54.10
2017-09-11T09:46:12.573Z,54.40
2017-09-11T09:48:40.839Z,55.90
2017-09-11T09:51:09.078Z,55.60
2017-09-11T09:53:37.346Z,55.30
2017-09-11T09:56:05.647Z,55.10
2017-09-11T09:58:33.994Z,55.10
2017-09-11T10:01:02.354Z,55.40
2017-09-11T10:03:31.885Z,55.00
2017-09-11T10:06:00.134Z,55.60
2017-09-11T10:08:28.374Z,56.90
2017-09-11T10:10:56.638Z,56.80
2017-09-11T10:13:25.638Z,56.50
2017-09-11T10:15:54.650Z,57.10
2017-09-11T10:18:22.911Z,57.10
2017-09-11T10:20:51.690Z,58.00
2017-09-11T10:23:20.715Z,58.20
2017-09-11T10:25:49.417Z,58.00
2017-09-11T10:28:17.665Z,58.10
2017-09-11T10:30:45.903Z,58.60
2017-09-11T10:33:14.177Z,59.30
2017-09-11T10:35:42.430Z,60.10
2017-09-11T10:38:11.611Z,60.00
2017-09-11T10:40:39.882Z,60.80
2017-09-11T10:43:08.130Z,61.70
2017-09-11T10:45:37.138Z,61.10
2017-09-11T10:48:05.657Z,61.20
2017-09-11T10:50:33.893Z,60.10
2017-09-11T10:53:02.944Z,58.80
2017-09-11T10:55:31.189Z,58.80
2017-09-11T10:57:59.434Z,58.80
2017-09-11T11:00:27.683Z,56.80
2017-09-11T11:02:55.990Z,55.90
2017-09-11T11:05:24.234Z,54.90
2017-09-11T11:07:52.605Z,52.70
2017-09-11T11:10:21.000Z,52.30
2017-09-11T11:12:49.366Z,52.30
2017-09-11T11:15:17.606Z,52.90
2017-09-11T11:17:45.886Z,52.30
2017-09-11T11:20:14.130Z,51.20
2017-09-11T11:22:43.465Z,52.60
2017-09-11T11:25:11.742Z,52.60
2017-09-11T11:27:39.986Z,52.30
2017-09-11T11:30:08.230Z,51.90
2017-09-11T11:32:36.573Z,52.00
2017-09-11T11:35:04.819Z,52.10
2017-09-11T11:37:33.062Z,52.30
2017-09-11T11:40:01.386Z,53.00
2017-09-11T11:42:29.671Z,52.10
2017-09-11T11:44:57.922Z,53.00
2017-09-11T11:47:26.186Z,53.90
2017-09-11T11:49:54.433Z,55.70
2017-09-11T11:52:24.306Z,70.30
2017-09-11T11:54:53.529Z,70.10
2017-09-11T11:57:21.783Z,68.80
2017-09-11T11:59:50.022Z,66.30
2017-09-11T12:02:18.303Z,65.10
2017-09-11T12:04:47.299Z,67.80
2017-09-11T12:07:15.725Z,69.00
2017-09-11T12:09:43.992Z,68.80
2017-09-11T12:12:12.257Z,69.30
2017-09-11T12:14:40.477Z,64.50
2017-09-11T12:17:09.898Z,59.90
2017-09-11T12:19:38.138Z,64.60
2017-09-11T12:22:06.382Z,55.70
2017-09-11T12:24:34.774Z,51.90
2017-09-11T12:27:03.020Z,52.70
2017-09-11T12:29:32.034Z,45.10
2017-09-11T12:32:00.302Z,44.90
2017-09-11T12:34:28.547Z,44.80
2017-09-11T12:36:56.812Z,44.40
2017-09-11T12:39:25.382Z,41.10
2017-09-11T12:41:53.618Z,41.30
2017-09-11T12:44:21.854Z,40.50
2017-09-11T12:46:50.122Z,40.20
2017-09-11T12:49:18.358Z,40.70
2017-09-11T12:51:46.595Z,40.70
2017-09-11T12:54:14.849Z,38.50
2017-09-11T12:56:43.095Z,38.30
2017-09-11T12:59:11.350Z,39.20
2017-09-11T13:01:40.957Z,43.00
2017-09-11T13:04:09.194Z,42.90
2017-09-11T13:06:37.487Z,44.30
2017-09-11T13:09:05.754Z,42.80
2017-09-11T13:11:34.142Z,40.80
2017-09-11T13:14:02.391Z,42.60
2017-09-11T13:16:30.794Z,43.90
2017-09-11T13:18:59.064Z,44.30
2017-09-11T13:21:27.332Z,44.50
2017-09-11T13:23:55.691Z,45.00
2017-09-11T13:26:24.714Z,46.10
2017-09-11T13:28:53.013Z,46.00
2017-09-11T13:31:21.291Z,45.70
2017-09-11T13:33:49.591Z,45.60
2017-09-11T13:36:19.553Z,47.40
2017-09-11T13:38:47.845Z,47.40
2017-09-11T13:41:16.082Z,42.70
2017-09-11T13:43:44.323Z,39.80
2017-09-11T13:46:13.985Z,38.40
2017-09-11T13:48:42.273Z,38.30
2017-09-11T13:51:10.519Z,38.60
2017-09-11T13:53:38.791Z,39.80
2017-09-11T13:56:07.042Z,40.30
2017-09-11T13:58:35.486Z,41.90
2017-09-11T14:01:03.762Z,41.90
2017-09-11T14:03:32.002Z,42.30
2017-09-11T14:06:00.289Z,43.40
2017-09-11T14:08:28.626Z,43.20
2017-09-11T14:10:56.878Z,43.40
2017-09-11T14:13:29.184Z,43.40
2017-09-11T14:15:57.436Z,42.40
2017-09-11T14:18:25.675Z,42.40
2017-09-11T14:20:53.998Z,41.40
2017-09-11T14:23:22.250Z,42.40
2017-09-11T14:25:52.009Z,43.70
2017-09-11T14:28:20.800Z,43.70
2017-09-11T14:30:49.219Z,38.70
2017-09-11T14:33:17.451Z,37.00
2017-09-11T14:35:45.733Z,36.50
2017-09-11T14:38:14.035Z,36.80
2017-09-11T14:40:42.289Z,35.10
2017-09-11T14:43:10.578Z,33.70
2017-09-11T14:45:38.839Z,36.10
2017-09-11T14:48:07.991Z,35.90
2017-09-11T14:50:36.521Z,34.90
2017-09-11T14:53:05.734Z,34.40
2017-09-11T14:55:33.978Z,34.90
2017-09-11T14:58:02.274Z,32.90
2017-09-11T15:00:30.568Z,35.10
2017-09-11T15:02:58.819Z,37.40
2017-09-11T15:05:27.082Z,36.00
2017-09-11T15:07:55.334Z,34.90
2017-09-11T15:10:23.703Z,34.10
2017-09-11T15:12:52.105Z,34.30
2017-09-11T15:15:20.334Z,36.80
2017-09-11T15:17:48.575Z,37.80
2017-09-11T15:20:16.846Z,37.20
2017-09-11T15:22:45.090Z,39.10
2017-09-11T15:25:13.556Z,41.00
2017-09-11T15:27:41.810Z,41.70
2017-09-11T15:30:11.473Z,43.10
2017-09-11T15:32:39.782Z,44.00
2017-09-11T15:35:09.228Z,45.50
2017-09-11T15:37:37.490Z,45.40
2017-09-11T15:40:05.719Z,46.10
2017-09-11T15:42:33.994Z,46.60
2017-09-11T15:45:03.182Z,46.70
2017-09-11T15:47:32.198Z,48.50
2017-09-11T15:50:01.227Z,49.10
2017-09-11T15:52:31.740Z,49.00
2017-09-11T15:55:00.207Z,49.70
2017-09-11T15:57:28.551Z,50.40
2017-09-11T15:59:57.846Z,50.70
2017-09-11T16:02:26.551Z,51.10
2017-09-11T16:04:54.824Z,52.10
2017-09-11T16:07:24.211Z,52.50
2017-09-11T16:09:52.576Z,51.30
2017-09-11T16:12:20.863Z,48.00
2017-09-11T16:14:49.274Z,46.40
2017-09-11T16:17:19.467Z,45.70
2017-09-11T16:19:47.915Z,45.60
2017-09-11T16:22:16.243Z,46.50
2017-09-11T16:24:44.607Z,45.80
2017-09-11T16:27:17.008Z,46.40
2017-09-11T16:29:45.350Z,46.10
2017-09-11T16:32:14.662Z,46.90
2017-09-11T16:34:43.054Z,47.20
2017-09-11T16:37:54.175Z,48.50
2017-09-11T16:40:22.847Z,47.80
2017-09-11T16:42:51.176Z,46.70
2017-09-11T16:45:19.567Z,46.30
2017-09-11T16:47:47.977Z,45.90
2017-09-11T16:50:16.310Z,46.60
2017-09-11T16:52:44.689Z,46.40
2017-09-11T16:55:14.059Z,46.30
2017-09-11T16:57:42.808Z,46.00
2017-09-11T17:00:11.143Z,46.50
2017-09-11T17:02:39.526Z,48.00
2017-09-11T17:05:07.819Z,49.30
2017-09-11T17:07:36.274Z,50.10
2017-09-11T17:10:05.605Z,50.90
2017-09-11T17:12:35.711Z,51.10
2017-09-11T17:15:04.114Z,52.00
2017-09-11T17:17:33.129Z,51.20
2017-09-11T17:20:02.269Z,52.20
2017-09-11T17:22:32.634Z,52.10
2017-09-11T17:25:01.054Z,51.70
2017-09-11T17:27:29.294Z,52.60
2017-09-11T17:29:57.640Z,51.80
2017-09-11T17:32:26.160Z,53.10
2017-09-11T17:34:55.175Z,53.70
2017-09-11T17:37:23.526Z,53.60
2017-09-11T17:39:51.797Z,53.20
2017-09-11T17:42:20.061Z,53.90
2017-09-11T17:44:49.266Z,53.80
2017-09-11T17:47:17.978Z,53.80
2017-09-11T17:49:47.574Z,54.50
2017-09-11T17:52:16.582Z,54.60
2017-09-11T17:54:45.640Z,54.40
2017-09-11T17:57:13.877Z,54.40
2017-09-11T17:59:42.297Z,54.40
2017-09-11T18:02:11.617Z,54.10
2017-09-11T18:04:41.203Z,54.10
2017-09-11T18:07:09.446Z,55.70
2017-09-11T18:09:37.774Z,55.40
2017-09-11T18:12:06.032Z,55.80
2017-09-11T18:14:34.420Z,56.00
2017-09-11T18:17:02.702Z,55.60
2017-09-11T18:19:30.942Z,55.50
2017-09-11T18:21:59.247Z,55.90
2017-09-11T18:24:27.653Z,55.70
2017-09-11T18:26:56.671Z,55.30
2017-09-11T18:29:27.008Z,55.20
2017-09-11T18:31:56.227Z,55.30
2017-09-11T18:34:25.132Z,55.30
2017-09-11T18:36:53.506Z,56.10
2017-09-11T18:39:21.925Z,55.90
2017-09-11T18:41:50.922Z,55.60
2017-09-11T18:44:20.725Z,55.80
2017-09-11T18:46:49.774Z,55.20
2017-09-11T18:49:18.030Z,55.20
2017-09-11T18:51:46.291Z,55.70
2017-09-11T18:54:15.011Z,55.60
2017-09-11T18:56:43.307Z,56.10
2017-09-11T18:59:11.694Z,55.30
2017-09-11T19:01:40.807Z,56.00
2017-09-11T19:04:09.066Z,55.40
2017-09-11T19:06:37.442Z,55.30
2017-09-11T19:09:05.706Z,55.20
2017-09-11T19:11:38.818Z,56.10
2017-09-11T19:14:07.423Z,55.70
2017-09-11T19:16:36.498Z,56.50
2017-09-11T19:19:05.783Z,56.50
2017-09-11T19:21:35.121Z,56.70
2017-09-11T19:24:05.508Z,57.50
2017-09-11T19:26:33.755Z,57.50
2017-09-11T19:29:02.145Z,57.10
2017-09-11T19:31:30.378Z,56.80
2017-09-11T19:33:58.831Z,56.30
2017-09-11T19:36:27.445Z,56.30
2017-09-11T19:38:56.454Z,56.40
2017-09-11T19:41:24.714Z,56.40
2017-09-11T19:43:52.994Z,57.50
2017-09-11T19:46:22.806Z,57.00
2017-09-11T19:48:51.827Z,57.60
2017-09-11T19:51:20.090Z,57.60
2017-09-11T19:53:48.336Z,57.10
2017-09-11T19:56:16.703Z,57.40
2017-09-11T19:58:45.463Z,57.10
2017-09-11T20:01:13.782Z,56.90
2017-09-11T20:03:42.378Z,57.20
2017-09-11T20:06:10.734Z,57.60
2017-09-11T20:08:39.086Z,56.70
2017-09-11T20:11:08.502Z,56.90
2017-09-11T20:13:36.782Z,56.80
2017-09-11T20:16:05.030Z,56.60
2017-09-11T20:18:33.274Z,56.80
2017-09-11T20:21:02.102Z,56.40
2017-09-11T20:23:30.352Z,56.20
2017-09-11T20:25:58.586Z,56.10
2017-09-11T20:28:26.889Z,56.40
2017-09-11T20:30:55.105Z,56.80
2017-09-11T20:33:23.385Z,56.70
2017-09-11T20:35:51.647Z,56.70
2017-09-11T20:38:21.038Z,57.40
2017-09-11T20:40:49.284Z,58.00
2017-09-11T20:43:18.898Z,58.70
2017-09-11T20:45:47.159Z,58.70
2017-09-11T20:48:15.412Z,59.50
2017-09-11T20:50:43.677Z,59.10
2017-09-11T20:53:11.917Z,61.00
2017-09-11T20:55:40.926Z,60.50
2017-09-11T20:58:09.202Z,60.40
2017-09-11T21:00:37.455Z,60.90
2017-09-11T21:03:05.702Z,59.20
2017-09-11T21:05:34.468Z,59.70
2017-09-11T21:08:02.739Z,58.60
2017-09-11T21:10:30.991Z,58.60
2017-09-11T21:12:59.259Z,58.60
2017-09-11T21:15:27.507Z,58.70
2017-09-11T21:17:55.747Z,58.50
2017-09-11T21:20:24.010Z,58.30
2017-09-11T21:22:52.415Z,58.30
2017-09-11T21:25:20.658Z,58.10
2017-09-11T21:27:49.326Z,60.10
2017-09-11T21:30:17.570Z,58.70
2017-09-11T21:32:45.806Z,59.40
2017-09-11T21:35:14.070Z,59.80
2017-09-11T21:37:42.322Z,61.60
2017-09-11T21:40:11.854Z,61.40
2017-09-11T21:42:40.131Z,61.40
2017-09-11T21:45:08.374Z,61.00
2017-09-11T21:47:36.626Z,60.50
2017-09-11T21:50:05.267Z,60.30
2017-09-11T21:52:33.519Z,60.40
2017-09-11T21:55:02.530Z,59.60
2017-09-11T21:57:30.803Z,59.50
2017-09-11T21:59:59.066Z,61.30
2017-09-11T22:02:28.078Z,60.00
2017-09-11T22:04:56.350Z,59.90
2017-09-11T22:07:24.595Z,59.40
2017-09-11T22:09:52.838Z,59.30
2017-09-11T22:12:21.618Z,59.80
2017-09-11T22:14:49.858Z,59.70
2017-09-11T22:17:18.878Z,61.50
2017-09-11T22:19:47.151Z,61.40
2017-09-11T22:22:16.006Z,62.10
2017-09-11T22:24:45.020Z,59.30
2017-09-11T22:27:13.289Z,59.20
2017-09-11T22:29:42.302Z,61.20
2017-09-11T22:32:10.553Z,61.20
2017-09-11T22:34:38.894Z,62.30
2017-09-11T22:37:07.134Z,60.00
2017-09-11T22:39:35.395Z,61.80
2017-09-11T22:42:04.287Z,62.20
2017-09-11T22:44:33.294Z,62.90
2017-09-11T22:47:01.554Z,62.80
2017-09-11T22:49:30.581Z,62.40
2017-09-11T22:51:58.832Z,62.40
2017-09-11T22:54:27.091Z,61.70
2017-09-11T22:56:56.442Z,63.20
2017-09-11T22:59:24.699Z,63.10
2017-09-11T23:01:52.941Z,63.60
2017-09-11T23:04:21.210Z,62.60
2017-09-11T23:06:49.447Z,61.70
2017-09-11T23:09:17.687Z,63.20
2017-09-11T23:11:46.726Z,60.20
2017-09-11T23:14:14.958Z,60.10
2017-09-11T23:16:43.199Z,61.50
2017-09-11T23:19:11.521Z,60.90
2017-09-11T23:21:39.841Z,60.20
2017-09-11T23:24:08.094Z,61.00
2017-09-11T23:26:36.358Z,60.40
2017-09-11T23:29:04.603Z,62.00
2017-09-11T23:31:32.843Z,62.00
2017-09-11T23:34:01.119Z,62.20
2017-09-11T23:36:29.364Z,62.20
2017-09-11T23:38:57.610Z,60.60
2017-09-11T23:41:27.143Z,62.40
2017-09-11T23:43:56.575Z,62.30
2017-09-11T23:46:24.825Z,60.80
2017-09-11T23:48:53.096Z,61.70
2017-09-11T23:51:21.338Z,61.60
2017-09-11T23:53:49.596Z,60.10
2017-09-11T23:56:17.846Z,60.40
2017-09-11T23:58:46.105Z,60.50
